sensor_id;sensor_type;location;lat;lon;timestamp;temperature;humidity
19397;DHT22;9834;48.076;11.878;2023-08-24T00:01:34;19.80;99.90
19397;DHT22;9834;48.076;11.878;2023-08-24T00:04:12;19.80;99.90
19397;DHT22;9834;48.076;11.878;2023-08-24T00:06:40;19.90;99.90
19397;DHT22;9834;48.076;11.878;2023-08-24T00:09:19;19.90;99.90
19397;DHT22;9834;48.076;11.878;2023-08-24T00:11:49;19.90;99.90
19397;DHT22;9834;48.076;11.878;2023-08-24T00:14:16;20.00;99.90
19397;DHT22;9834;48.076;11.878;2023-08-24T00:16:43;19.90;99.90
19397;DHT22;9834;48.076;11.878;2023-08-24T00:19:12;19.90;99.90
19397;DHT22;9834;48.076;11.878;2023-08-24T00:21:43;19.90;99.90
19397;DHT22;9834;48.076;11.878;2023-08-24T00:24:10;19.90;99.90
19397;DHT22;9834;48.076;11.878;2023-08-24T00:26:39;19.90;99.90
19397;DHT22;9834;48.076;11.878;2023-08-24T00:29:06;19.90;99.90
19397;DHT22;9834;48.076;11.878;2023-08-24T00:31:33;19.90;99.90
19397;DHT22;9834;48.076;11.878;2023-08-24T00:34:02;19.80;99.90
19397;DHT22;9834;48.076;11.878;2023-08-24T00:36:29;19.80;99.90
19397;DHT22;9834;48.076;11.878;2023-08-24T00:39:02;19.70;99.90
19397;DHT22;9834;48.076;11.878;2023-08-24T00:41:35;19.70;99.90
19397;DHT22;9834;48.076;11.878;2023-08-24T00:44:05;19.60;99.90
19397;DHT22;9834;48.076;11.878;2023-08-24T00:46:33;19.60;99.90
19397;DHT22;9834;48.076;11.878;2023-08-24T00:49:09;19.50;99.90
19397;DHT22;9834;48.076;11.878;2023-08-24T00:51:36;19.40;99.90
19397;DHT22;9834;48.076;11.878;2023-08-24T00:54:08;19.40;99.90
19397;DHT22;9834;48.076;11.878;2023-08-24T00:56:44;19.40;99.90
19397;DHT22;9834;48.076;11.878;2023-08-24T00:59:11;19.40;99.90
19397;DHT22;9834;48.076;11.878;2023-08-24T01:01:44;19.40;99.90
19397;DHT22;9834;48.076;11.878;2023-08-24T01:04:14;19.40;99.90
19397;DHT22;9834;48.076;11.878;2023-08-24T01:06:45;19.50;99.90
19397;DHT22;9834;48.076;11.878;2023-08-24T01:09:26;19.60;99.90
19397;DHT22;9834;48.076;11.878;2023-08-24T01:12:02;19.60;99.90
19397;DHT22;9834;48.076;11.878;2023-08-24T01:14:44;19.70;99.90
19397;DHT22;9834;48.076;11.878;2023-08-24T01:17:15;19.70;99.90
19397;DHT22;9834;48.076;11.878;2023-08-24T01:19:45;19.80;99.90
19397;DHT22;9834;48.076;11.878;2023-08-24T01:22:34;19.80;99.90
19397;DHT22;9834;48.076;11.878;2023-08-24T01:25:11;19.80;99.90
19397;DHT22;9834;48.076;11.878;2023-08-24T01:27:41;19.80;99.90
19397;DHT22;9834;48.076;11.878;2023-08-24T01:30:12;19.80;99.90
19397;DHT22;9834;48.076;11.878;2023-08-24T01:32:47;19.70;99.90
19397;DHT22;9834;48.076;11.878;2023-08-24T01:35:14;19.70;99.90
19397;DHT22;9834;48.076;11.878;2023-08-24T01:37:47;19.70;99.90
19397;DHT22;9834;48.076;11.878;2023-08-24T01:40:29;19.70;99.90
19397;DHT22;9834;48.076;11.878;2023-08-24T01:43:04;19.60;99.90
19397;DHT22;9834;48.076;11.878;2023-08-24T01:45:34;19.50;99.90
19397;DHT22;9834;48.076;11.878;2023-08-24T01:48:09;19.50;99.90
19397;DHT22;9834;48.076;11.878;2023-08-24T01:50:39;19.50;99.90
19397;DHT22;9834;48.076;11.878;2023-08-24T01:53:09;19.50;99.90
19397;DHT22;9834;48.076;11.878;2023-08-24T01:55:41;19.50;99.90
19397;DHT22;9834;48.076;11.878;2023-08-24T01:58:24;19.50;99.90
19397;DHT22;9834;48.076;11.878;2023-08-24T02:00:51;19.50;99.90
19397;DHT22;9834;48.076;11.878;2023-08-24T02:03:18;19.50;99.90
19397;DHT22;9834;48.076;11.878;2023-08-24T02:05:57;19.50;99.90
19397;DHT22;9834;48.076;11.878;2023-08-24T02:08:26;19.40;99.90
19397;DHT22;9834;48.076;11.878;2023-08-24T02:10:56;19.40;99.90
19397;DHT22;9834;48.076;11.878;2023-08-24T02:13:24;19.30;99.90
19397;DHT22;9834;48.076;11.878;2023-08-24T02:16:01;19.20;99.90
19397;DHT22;9834;48.076;11.878;2023-08-24T02:18:28;19.20;99.90
19397;DHT22;9834;48.076;11.878;2023-08-24T02:20:54;19.10;99.90
19397;DHT22;9834;48.076;11.878;2023-08-24T02:23:28;19.10;99.90
19397;DHT22;9834;48.076;11.878;2023-08-24T02:26:10;19.00;99.90
19397;DHT22;9834;48.076;11.878;2023-08-24T02:28:48;19.00;99.90
19397;DHT22;9834;48.076;11.878;2023-08-24T02:31:19;18.90;99.90
19397;DHT22;9834;48.076;11.878;2023-08-24T02:33:49;18.90;99.90
19397;DHT22;9834;48.076;11.878;2023-08-24T02:36:18;18.80;99.90
19397;DHT22;9834;48.076;11.878;2023-08-24T02:38:48;18.70;99.90
19397;DHT22;9834;48.076;11.878;2023-08-24T02:41:20;18.70;99.90
19397;DHT22;9834;48.076;11.878;2023-08-24T02:44:03;18.60;99.90
19397;DHT22;9834;48.076;11.878;2023-08-24T02:46:33;18.60;99.90
19397;DHT22;9834;48.076;11.878;2023-08-24T02:49:05;18.50;99.90
19397;DHT22;9834;48.076;11.878;2023-08-24T02:51:33;18.50;99.90
19397;DHT22;9834;48.076;11.878;2023-08-24T02:54:02;18.40;99.90
19397;DHT22;9834;48.076;11.878;2023-08-24T02:56:32;18.40;99.90
19397;DHT22;9834;48.076;11.878;2023-08-24T02:59:05;18.30;99.90
19397;DHT22;9834;48.076;11.878;2023-08-24T03:01:37;18.30;99.90
19397;DHT22;9834;48.076;11.878;2023-08-24T03:04:06;18.30;99.90
19397;DHT22;9834;48.076;11.878;2023-08-24T03:06:36;18.20;99.90
19397;DHT22;9834;48.076;11.878;2023-08-24T03:09:05;18.20;99.90
19397;DHT22;9834;48.076;11.878;2023-08-24T03:11:34;18.20;99.90
19397;DHT22;9834;48.076;11.878;2023-08-24T03:14:06;18.20;99.90
19397;DHT22;9834;48.076;11.878;2023-08-24T03:16:42;18.20;99.90
19397;DHT22;9834;48.076;11.878;2023-08-24T03:19:26;18.20;99.90
19397;DHT22;9834;48.076;11.878;2023-08-24T03:21:54;18.10;99.90
19397;DHT22;9834;48.076;11.878;2023-08-24T03:24:27;18.10;99.90
19397;DHT22;9834;48.076;11.878;2023-08-24T03:26:54;18.10;99.90
19397;DHT22;9834;48.076;11.878;2023-08-24T03:29:25;18.10;99.90
19397;DHT22;9834;48.076;11.878;2023-08-24T03:31:54;18.00;99.90
19397;DHT22;9834;48.076;11.878;2023-08-24T03:34:26;18.00;99.90
19397;DHT22;9834;48.076;11.878;2023-08-24T03:36:57;18.10;99.90
19397;DHT22;9834;48.076;11.878;2023-08-24T03:39:27;18.10;99.90
19397;DHT22;9834;48.076;11.878;2023-08-24T03:42:02;18.10;99.90
19397;DHT22;9834;48.076;11.878;2023-08-24T03:44:34;18.20;99.90
19397;DHT22;9834;48.076;11.878;2023-08-24T03:47:05;18.20;99.90
19397;DHT22;9834;48.076;11.878;2023-08-24T03:49:46;18.20;99.90
19397;DHT22;9834;48.076;11.878;2023-08-24T03:52:23;18.20;99.90
19397;DHT22;9834;48.076;11.878;2023-08-24T03:54:50;18.20;99.90
19397;DHT22;9834;48.076;11.878;2023-08-24T03:57:19;18.30;99.90
19397;DHT22;9834;48.076;11.878;2023-08-24T03:59:52;18.20;99.90
19397;DHT22;9834;48.076;11.878;2023-08-24T04:02:19;18.30;99.90
19397;DHT22;9834;48.076;11.878;2023-08-24T04:04:54;18.30;99.90
19397;DHT22;9834;48.076;11.878;2023-08-24T04:07:25;18.30;99.90
19397;DHT22;9834;48.076;11.878;2023-08-24T04:09:54;18.30;99.90
19397;DHT22;9834;48.076;11.878;2023-08-24T04:12:24;18.30;99.90
19397;DHT22;9834;48.076;11.878;2023-08-24T04:14:52;18.30;99.90
19397;DHT22;9834;48.076;11.878;2023-08-24T04:17:23;18.30;99.90
19397;DHT22;9834;48.076;11.878;2023-08-24T04:19:55;18.30;99.90
19397;DHT22;9834;48.076;11.878;2023-08-24T04:22:30;18.30;99.90
19397;DHT22;9834;48.076;11.878;2023-08-24T04:25:04;18.40;99.90
19397;DHT22;9834;48.076;11.878;2023-08-24T04:27:42;18.40;99.90
19397;DHT22;9834;48.076;11.878;2023-08-24T04:30:14;18.40;99.90
19397;DHT22;9834;48.076;11.878;2023-08-24T04:32:46;18.50;99.90
19397;DHT22;9834;48.076;11.878;2023-08-24T04:35:15;18.50;99.90
19397;DHT22;9834;48.076;11.878;2023-08-24T04:37:56;18.60;99.90
19397;DHT22;9834;48.076;11.878;2023-08-24T04:40:26;18.70;99.90
19397;DHT22;9834;48.076;11.878;2023-08-24T04:42:56;18.70;99.90
19397;DHT22;9834;48.076;11.878;2023-08-24T04:45:38;18.70;99.90
19397;DHT22;9834;48.076;11.878;2023-08-24T04:48:11;18.70;99.90
19397;DHT22;9834;48.076;11.878;2023-08-24T04:50:44;18.70;99.90
19397;DHT22;9834;48.076;11.878;2023-08-24T04:53:18;18.70;99.90
19397;DHT22;9834;48.076;11.878;2023-08-24T04:55:53;18.80;99.90
19397;DHT22;9834;48.076;11.878;2023-08-24T04:58:23;18.80;99.90
19397;DHT22;9834;48.076;11.878;2023-08-24T05:00:54;18.80;99.90
19397;DHT22;9834;48.076;11.878;2023-08-24T05:03:23;18.80;99.90
19397;DHT22;9834;48.076;11.878;2023-08-24T05:05:53;18.80;99.90
19397;DHT22;9834;48.076;11.878;2023-08-24T05:08:19;18.90;99.90
19397;DHT22;9834;48.076;11.878;2023-08-24T05:10:46;19.00;99.90
19397;DHT22;9834;48.076;11.878;2023-08-24T05:13:13;19.00;99.90
19397;DHT22;9834;48.076;11.878;2023-08-24T05:15:40;19.10;99.90
19397;DHT22;9834;48.076;11.878;2023-08-24T05:18:19;19.20;99.90
19397;DHT22;9834;48.076;11.878;2023-08-24T05:20:46;19.20;99.90
19397;DHT22;9834;48.076;11.878;2023-08-24T05:23:15;19.30;99.90
19397;DHT22;9834;48.076;11.878;2023-08-24T05:25:42;19.40;99.90
19397;DHT22;9834;48.076;11.878;2023-08-24T05:28:09;19.50;99.90
19397;DHT22;9834;48.076;11.878;2023-08-24T05:30:45;19.60;99.90
19397;DHT22;9834;48.076;11.878;2023-08-24T05:33:23;19.70;99.90
19397;DHT22;9834;48.076;11.878;2023-08-24T05:35:51;19.90;99.90
19397;DHT22;9834;48.076;11.878;2023-08-24T05:38:19;20.00;99.90
19397;DHT22;9834;48.076;11.878;2023-08-24T05:40:57;20.10;99.90
19397;DHT22;9834;48.076;11.878;2023-08-24T05:43:29;20.20;99.90
19397;DHT22;9834;48.076;11.878;2023-08-24T05:45:58;20.30;99.90
19397;DHT22;9834;48.076;11.878;2023-08-24T05:48:32;20.40;99.90
19397;DHT22;9834;48.076;11.878;2023-08-24T05:51:03;20.50;99.90
19397;DHT22;9834;48.076;11.878;2023-08-24T05:53:38;20.60;99.90
19397;DHT22;9834;48.076;11.878;2023-08-24T05:56:06;20.70;99.90
19397;DHT22;9834;48.076;11.878;2023-08-24T05:58:39;20.70;99.90
19397;DHT22;9834;48.076;11.878;2023-08-24T06:01:11;20.80;99.90
19397;DHT22;9834;48.076;11.878;2023-08-24T06:03:43;20.90;99.90
19397;DHT22;9834;48.076;11.878;2023-08-24T06:06:16;21.00;99.90
19397;DHT22;9834;48.076;11.878;2023-08-24T06:08:51;21.00;99.90
19397;DHT22;9834;48.076;11.878;2023-08-24T06:11:27;21.10;99.90
19397;DHT22;9834;48.076;11.878;2023-08-24T06:13:54;21.20;99.90
19397;DHT22;9834;48.076;11.878;2023-08-24T06:16:24;21.40;99.90
19397;DHT22;9834;48.076;11.878;2023-08-24T06:18:55;21.50;99.90
19397;DHT22;9834;48.076;11.878;2023-08-24T06:21:24;21.60;99.90
19397;DHT22;9834;48.076;11.878;2023-08-24T06:23:51;21.70;99.90
19397;DHT22;9834;48.076;11.878;2023-08-24T06:26:24;21.80;99.90
19397;DHT22;9834;48.076;11.878;2023-08-24T06:29:06;21.80;99.90
19397;DHT22;9834;48.076;11.878;2023-08-24T06:31:53;22.00;99.90
19397;DHT22;9834;48.076;11.878;2023-08-24T06:34:22;22.10;99.90
19397;DHT22;9834;48.076;11.878;2023-08-24T06:36:50;22.20;99.90
19397;DHT22;9834;48.076;11.878;2023-08-24T06:39:20;22.20;99.90
19397;DHT22;9834;48.076;11.878;2023-08-24T06:41:50;22.20;99.90
19397;DHT22;9834;48.076;11.878;2023-08-24T06:44:23;22.30;99.90
19397;DHT22;9834;48.076;11.878;2023-08-24T06:46:59;22.40;99.90
19397;DHT22;9834;48.076;11.878;2023-08-24T06:49:37;22.50;99.90
19397;DHT22;9834;48.076;11.878;2023-08-24T06:52:05;22.50;99.90
19397;DHT22;9834;48.076;11.878;2023-08-24T06:54:38;22.60;99.90
19397;DHT22;9834;48.076;11.878;2023-08-24T06:57:08;22.70;99.90
19397;DHT22;9834;48.076;11.878;2023-08-24T06:59:37;22.70;99.90
19397;DHT22;9834;48.076;11.878;2023-08-24T07:02:16;22.70;99.90
19397;DHT22;9834;48.076;11.878;2023-08-24T07:04:57;22.80;99.90
19397;DHT22;9834;48.076;11.878;2023-08-24T07:07:24;22.80;99.90
19397;DHT22;9834;48.076;11.878;2023-08-24T07:09:51;22.80;99.90
19397;DHT22;9834;48.076;11.878;2023-08-24T07:12:21;22.90;99.90
19397;DHT22;9834;48.076;11.878;2023-08-24T07:14:56;23.00;99.90
19397;DHT22;9834;48.076;11.878;2023-08-24T07:17:26;23.00;99.90
19397;DHT22;9834;48.076;11.878;2023-08-24T07:19:53;23.10;99.90
19397;DHT22;9834;48.076;11.878;2023-08-24T07:22:22;23.20;99.90
19397;DHT22;9834;48.076;11.878;2023-08-24T07:24:51;23.30;99.90
19397;DHT22;9834;48.076;11.878;2023-08-24T07:27:21;23.30;99.90
19397;DHT22;9834;48.076;11.878;2023-08-24T07:29:48;23.40;99.90
19397;DHT22;9834;48.076;11.878;2023-08-24T07:32:15;23.50;99.90
19397;DHT22;9834;48.076;11.878;2023-08-24T07:34:47;23.60;99.90
19397;DHT22;9834;48.076;11.878;2023-08-24T07:37:14;23.60;99.90
19397;DHT22;9834;48.076;11.878;2023-08-24T07:39:53;23.70;99.90
19397;DHT22;9834;48.076;11.878;2023-08-24T07:42:23;23.80;99.90
19397;DHT22;9834;48.076;11.878;2023-08-24T07:44:50;23.90;99.90
19397;DHT22;9834;48.076;11.878;2023-08-24T07:47:17;24.00;99.90
19397;DHT22;9834;48.076;11.878;2023-08-24T07:49:47;24.20;99.90
19397;DHT22;9834;48.076;11.878;2023-08-24T07:52:14;24.30;99.90
19397;DHT22;9834;48.076;11.878;2023-08-24T07:54:41;24.40;99.90
19397;DHT22;9834;48.076;11.878;2023-08-24T07:57:23;24.50;99.90
19397;DHT22;9834;48.076;11.878;2023-08-24T07:59:54;24.70;99.90
19397;DHT22;9834;48.076;11.878;2023-08-24T08:02:26;24.80;99.90
19397;DHT22;9834;48.076;11.878;2023-08-24T08:05:02;24.90;99.90
19397;DHT22;9834;48.076;11.878;2023-08-24T08:07:32;25.00;99.90
19397;DHT22;9834;48.076;11.878;2023-08-24T08:10:06;25.10;99.90
19397;DHT22;9834;48.076;11.878;2023-08-24T08:12:35;25.20;99.90
19397;DHT22;9834;48.076;11.878;2023-08-24T08:15:05;25.30;99.90
19397;DHT22;9834;48.076;11.878;2023-08-24T08:17:35;25.30;99.90
19397;DHT22;9834;48.076;11.878;2023-08-24T08:20:03;25.40;99.90
19397;DHT22;9834;48.076;11.878;2023-08-24T08:22:30;25.50;99.90
19397;DHT22;9834;48.076;11.878;2023-08-24T08:25:01;25.60;99.90
19397;DHT22;9834;48.076;11.878;2023-08-24T08:27:28;25.60;99.90
19397;DHT22;9834;48.076;11.878;2023-08-24T08:30:02;25.70;99.90
19397;DHT22;9834;48.076;11.878;2023-08-24T08:32:31;25.80;99.90
19397;DHT22;9834;48.076;11.878;2023-08-24T08:35:00;25.90;99.90
19397;DHT22;9834;48.076;11.878;2023-08-24T08:37:33;25.90;99.90
19397;DHT22;9834;48.076;11.878;2023-08-24T08:40:17;26.10;99.90
19397;DHT22;9834;48.076;11.878;2023-08-24T08:42:45;26.20;99.90
19397;DHT22;9834;48.076;11.878;2023-08-24T08:45:21;26.30;99.90
19397;DHT22;9834;48.076;11.878;2023-08-24T08:47:51;26.40;99.90
19397;DHT22;9834;48.076;11.878;2023-08-24T08:50:22;26.50;99.90
19397;DHT22;9834;48.076;11.878;2023-08-24T08:52:52;26.60;99.90
19397;DHT22;9834;48.076;11.878;2023-08-24T08:55:19;26.80;99.90
19397;DHT22;9834;48.076;11.878;2023-08-24T08:57:48;26.80;99.90
19397;DHT22;9834;48.076;11.878;2023-08-24T09:00:18;26.90;99.90
19397;DHT22;9834;48.076;11.878;2023-08-24T09:02:49;27.00;99.90
19397;DHT22;9834;48.076;11.878;2023-08-24T09:05:18;27.00;99.90
19397;DHT22;9834;48.076;11.878;2023-08-24T09:08:01;27.10;99.90
19397;DHT22;9834;48.076;11.878;2023-08-24T09:10:36;27.20;99.90
19397;DHT22;9834;48.076;11.878;2023-08-24T09:13:11;27.20;99.90
19397;DHT22;9834;48.076;11.878;2023-08-24T09:15:43;27.30;99.90
19397;DHT22;9834;48.076;11.878;2023-08-24T09:18:10;27.50;99.90
19397;DHT22;9834;48.076;11.878;2023-08-24T09:20:49;27.70;99.90
19397;DHT22;9834;48.076;11.878;2023-08-24T09:23:19;27.90;99.90
19397;DHT22;9834;48.076;11.878;2023-08-24T09:25:58;28.00;99.90
19397;DHT22;9834;48.076;11.878;2023-08-24T09:28:38;28.10;99.90
19397;DHT22;9834;48.076;11.878;2023-08-24T09:31:13;28.30;99.90
19397;DHT22;9834;48.076;11.878;2023-08-24T09:33:43;28.50;99.90
19397;DHT22;9834;48.076;11.878;2023-08-24T09:36:14;28.50;99.90
19397;DHT22;9834;48.076;11.878;2023-08-24T09:38:48;28.70;99.90
19397;DHT22;9834;48.076;11.878;2023-08-24T09:41:18;28.70;99.90
19397;DHT22;9834;48.076;11.878;2023-08-24T09:43:46;28.80;99.90
19397;DHT22;9834;48.076;11.878;2023-08-24T09:46:19;29.00;99.90
19397;DHT22;9834;48.076;11.878;2023-08-24T09:48:56;29.00;99.90
19397;DHT22;9834;48.076;11.878;2023-08-24T09:51:27;29.20;99.90
19397;DHT22;9834;48.076;11.878;2023-08-24T09:53:57;29.40;99.90
19397;DHT22;9834;48.076;11.878;2023-08-24T09:56:35;29.60;99.90
19397;DHT22;9834;48.076;11.878;2023-08-24T09:59:12;29.90;99.90
19397;DHT22;9834;48.076;11.878;2023-08-24T10:01:51;30.30;99.90
19397;DHT22;9834;48.076;11.878;2023-08-24T10:04:22;30.80;99.80
19397;DHT22;9834;48.076;11.878;2023-08-24T10:06:55;31.30;98.40
19397;DHT22;9834;48.076;11.878;2023-08-24T10:09:27;31.60;96.90
19397;DHT22;9834;48.076;11.878;2023-08-24T10:11:59;31.70;94.80
19397;DHT22;9834;48.076;11.878;2023-08-24T10:14:44;31.90;94.30
19397;DHT22;9834;48.076;11.878;2023-08-24T10:17:15;32.10;94.50
19397;DHT22;9834;48.076;11.878;2023-08-24T10:19:48;32.30;92.50
19397;DHT22;9834;48.076;11.878;2023-08-24T10:22:18;32.40;93.70
19397;DHT22;9834;48.076;11.878;2023-08-24T10:24:53;32.50;92.30
19397;DHT22;9834;48.076;11.878;2023-08-24T10:27:26;32.50;89.60
19397;DHT22;9834;48.076;11.878;2023-08-24T10:30:02;32.70;89.80
19397;DHT22;9834;48.076;11.878;2023-08-24T10:32:38;32.70;87.20
19397;DHT22;9834;48.076;11.878;2023-08-24T10:35:17;32.70;87.50
19397;DHT22;9834;48.076;11.878;2023-08-24T10:37:44;32.70;89.90
19397;DHT22;9834;48.076;11.878;2023-08-24T10:40:13;32.80;84.90
19397;DHT22;9834;48.076;11.878;2023-08-24T10:42:45;32.80;83.30
19397;DHT22;9834;48.076;11.878;2023-08-24T10:45:13;33.00;88.10
19397;DHT22;9834;48.076;11.878;2023-08-24T10:47:52;33.30;83.50
19397;DHT22;9834;48.076;11.878;2023-08-24T10:50:35;33.20;81.20
19397;DHT22;9834;48.076;11.878;2023-08-24T10:53:07;33.20;81.60
19397;DHT22;9834;48.076;11.878;2023-08-24T10:55:37;33.30;83.80
19397;DHT22;9834;48.076;11.878;2023-08-24T10:58:07;33.50;81.80
19397;DHT22;9834;48.076;11.878;2023-08-24T11:00:48;33.40;80.40
19397;DHT22;9834;48.076;11.878;2023-08-24T11:03:30;33.00;81.10
19397;DHT22;9834;48.076;11.878;2023-08-24T11:06:01;33.50;83.80
19397;DHT22;9834;48.076;11.878;2023-08-24T11:08:49;34.10;81.10
19397;DHT22;9834;48.076;11.878;2023-08-24T11:11:19;34.90;77.50
19397;DHT22;9834;48.076;11.878;2023-08-24T11:14:13;35.40;71.90
19397;DHT22;9834;48.076;11.878;2023-08-24T11:16:42;35.60;71.50
19397;DHT22;9834;48.076;11.878;2023-08-24T11:19:24;36.00;67.70
19397;DHT22;9834;48.076;11.878;2023-08-24T11:21:55;36.20;67.20
19397;DHT22;9834;48.076;11.878;2023-08-24T11:24:24;36.30;65.60
19397;DHT22;9834;48.076;11.878;2023-08-24T11:27:10;36.60;68.10
19397;DHT22;9834;48.076;11.878;2023-08-24T11:29:37;37.00;68.30
19397;DHT22;9834;48.076;11.878;2023-08-24T11:32:06;37.30;64.10
19397;DHT22;9834;48.076;11.878;2023-08-24T11:34:38;37.50;61.80
19397;DHT22;9834;48.076;11.878;2023-08-24T11:37:18;37.50;58.90
19397;DHT22;9834;48.076;11.878;2023-08-24T11:39:48;37.70;58.50
19397;DHT22;9834;48.076;11.878;2023-08-24T11:42:35;37.60;58.60
19397;DHT22;9834;48.076;11.878;2023-08-24T11:45:12;38.00;58.90
19397;DHT22;9834;48.076;11.878;2023-08-24T11:47:40;38.80;56.50
19397;DHT22;9834;48.076;11.878;2023-08-24T11:50:09;39.10;54.40
19397;DHT22;9834;48.076;11.878;2023-08-24T11:52:40;39.20;54.00
19397;DHT22;9834;48.076;11.878;2023-08-24T11:55:07;39.60;54.10
19397;DHT22;9834;48.076;11.878;2023-08-24T11:57:35;40.00;53.00
19397;DHT22;9834;48.076;11.878;2023-08-24T12:00:03;39.90;50.50
19397;DHT22;9834;48.076;11.878;2023-08-24T12:02:30;40.30;50.00
19397;DHT22;9834;48.076;11.878;2023-08-24T12:05:00;39.90;51.20
19397;DHT22;9834;48.076;11.878;2023-08-24T12:07:29;40.30;50.30
19397;DHT22;9834;48.076;11.878;2023-08-24T12:10:00;40.50;49.80
19397;DHT22;9834;48.076;11.878;2023-08-24T12:12:38;40.40;51.00
19397;DHT22;9834;48.076;11.878;2023-08-24T12:15:15;40.80;48.80
19397;DHT22;9834;48.076;11.878;2023-08-24T12:17:43;41.50;48.40
19397;DHT22;9834;48.076;11.878;2023-08-24T12:20:18;41.80;47.70
19397;DHT22;9834;48.076;11.878;2023-08-24T12:22:54;41.80;47.80
19397;DHT22;9834;48.076;11.878;2023-08-24T12:25:25;42.30;45.70
19397;DHT22;9834;48.076;11.878;2023-08-24T12:28:09;42.10;45.80
19397;DHT22;9834;48.076;11.878;2023-08-24T12:30:48;41.80;46.10
19397;DHT22;9834;48.076;11.878;2023-08-24T12:33:22;41.70;45.50
19397;DHT22;9834;48.076;11.878;2023-08-24T12:35:55;42.50;43.70
19397;DHT22;9834;48.076;11.878;2023-08-24T12:38:26;43.10;43.20
19397;DHT22;9834;48.076;11.878;2023-08-24T12:40:55;43.80;42.30
19397;DHT22;9834;48.076;11.878;2023-08-24T12:43:24;43.80;42.20
19397;DHT22;9834;48.076;11.878;2023-08-24T12:45:52;44.10;41.70
19397;DHT22;9834;48.076;11.878;2023-08-24T12:48:19;43.90;42.00
19397;DHT22;9834;48.076;11.878;2023-08-24T12:50:46;43.90;42.00
19397;DHT22;9834;48.076;11.878;2023-08-24T12:53:16;43.70;41.10
19397;DHT22;9834;48.076;11.878;2023-08-24T12:55:44;43.60;41.60
19397;DHT22;9834;48.076;11.878;2023-08-24T12:58:11;44.00;41.70
19397;DHT22;9834;48.076;11.878;2023-08-24T13:00:45;44.70;41.50
19397;DHT22;9834;48.076;11.878;2023-08-24T13:03:16;44.60;40.40
19397;DHT22;9834;48.076;11.878;2023-08-24T13:05:46;45.30;40.90
19397;DHT22;9834;48.076;11.878;2023-08-24T13:08:17;45.70;38.10
19397;DHT22;9834;48.076;11.878;2023-08-24T13:10:45;45.30;38.60
19397;DHT22;9834;48.076;11.878;2023-08-24T13:13:12;44.80;39.30
19397;DHT22;9834;48.076;11.878;2023-08-24T13:15:39;44.90;39.40
19397;DHT22;9834;48.076;11.878;2023-08-24T13:18:06;44.70;37.60
19397;DHT22;9834;48.076;11.878;2023-08-24T13:20:36;45.10;38.90
19397;DHT22;9834;48.076;11.878;2023-08-24T13:23:06;46.00;38.40
19397;DHT22;9834;48.076;11.878;2023-08-24T13:25:33;46.40;36.40
19397;DHT22;9834;48.076;11.878;2023-08-24T13:28:02;45.50;38.10
19397;DHT22;9834;48.076;11.878;2023-08-24T13:30:31;45.60;37.10
19397;DHT22;9834;48.076;11.878;2023-08-24T13:33:02;45.10;36.00
19397;DHT22;9834;48.076;11.878;2023-08-24T13:35:31;45.50;35.60
19397;DHT22;9834;48.076;11.878;2023-08-24T13:37:58;45.60;36.60
19397;DHT22;9834;48.076;11.878;2023-08-24T13:40:25;45.50;36.90
19397;DHT22;9834;48.076;11.878;2023-08-24T13:42:52;45.30;37.10
19397;DHT22;9834;48.076;11.878;2023-08-24T13:45:22;45.40;35.40
19397;DHT22;9834;48.076;11.878;2023-08-24T13:47:49;45.30;36.70
19397;DHT22;9834;48.076;11.878;2023-08-24T13:50:18;45.00;37.40
19397;DHT22;9834;48.076;11.878;2023-08-24T13:52:59;45.30;37.90
19397;DHT22;9834;48.076;11.878;2023-08-24T13:55:29;45.30;35.90
19397;DHT22;9834;48.076;11.878;2023-08-24T13:58:01;45.80;36.60
19397;DHT22;9834;48.076;11.878;2023-08-24T14:00:30;46.30;35.60
19397;DHT22;9834;48.076;11.878;2023-08-24T14:03:01;47.00;35.60
19397;DHT22;9834;48.076;11.878;2023-08-24T14:05:31;47.30;32.90
19397;DHT22;9834;48.076;11.878;2023-08-24T14:08:04;47.80;32.70
19397;DHT22;9834;48.076;11.878;2023-08-24T14:10:31;46.80;33.00
19397;DHT22;9834;48.076;11.878;2023-08-24T14:12:58;46.80;33.90
19397;DHT22;9834;48.076;11.878;2023-08-24T14:15:25;46.10;34.10
19397;DHT22;9834;48.076;11.878;2023-08-24T14:17:53;45.40;34.20
19397;DHT22;9834;48.076;11.878;2023-08-24T14:20:20;45.60;34.50
19397;DHT22;9834;48.076;11.878;2023-08-24T14:22:47;45.50;33.00
19397;DHT22;9834;48.076;11.878;2023-08-24T14:25:16;45.40;34.50
19397;DHT22;9834;48.076;11.878;2023-08-24T14:27:43;45.90;34.60
19397;DHT22;9834;48.076;11.878;2023-08-24T14:30:21;45.70;33.20
19397;DHT22;9834;48.076;11.878;2023-08-24T14:32:50;45.40;34.10
19397;DHT22;9834;48.076;11.878;2023-08-24T14:35:24;45.40;33.50
19397;DHT22;9834;48.076;11.878;2023-08-24T14:37:51;45.40;34.40
19397;DHT22;9834;48.076;11.878;2023-08-24T14:40:18;45.50;33.40
19397;DHT22;9834;48.076;11.878;2023-08-24T14:42:45;45.50;33.90
19397;DHT22;9834;48.076;11.878;2023-08-24T14:45:26;45.50;34.00
19397;DHT22;9834;48.076;11.878;2023-08-24T14:47:52;45.70;34.70
19397;DHT22;9834;48.076;11.878;2023-08-24T14:50:26;46.00;34.00
19397;DHT22;9834;48.076;11.878;2023-08-24T14:52:56;45.90;35.40
19397;DHT22;9834;48.076;11.878;2023-08-24T14:55:23;45.40;33.90
19397;DHT22;9834;48.076;11.878;2023-08-24T14:57:50;44.70;34.70
19397;DHT22;9834;48.076;11.878;2023-08-24T15:00:18;45.00;34.60
19397;DHT22;9834;48.076;11.878;2023-08-24T15:02:45;44.90;34.40
19397;DHT22;9834;48.076;11.878;2023-08-24T15:05:12;45.00;34.30
19397;DHT22;9834;48.076;11.878;2023-08-24T15:07:46;45.40;33.00
19397;DHT22;9834;48.076;11.878;2023-08-24T15:10:16;46.10;34.50
19397;DHT22;9834;48.076;11.878;2023-08-24T15:12:59;46.40;33.30
19397;DHT22;9834;48.076;11.878;2023-08-24T15:15:28;46.30;33.10
19397;DHT22;9834;48.076;11.878;2023-08-24T15:18:09;45.80;33.10
19397;DHT22;9834;48.076;11.878;2023-08-24T15:20:37;44.90;34.90
19397;DHT22;9834;48.076;11.878;2023-08-24T15:23:16;44.70;34.90
19397;DHT22;9834;48.076;11.878;2023-08-24T15:25:54;43.60;35.90
19397;DHT22;9834;48.076;11.878;2023-08-24T15:28:36;42.70;36.80
19397;DHT22;9834;48.076;11.878;2023-08-24T15:31:03;42.10;38.50
19397;DHT22;9834;48.076;11.878;2023-08-24T15:33:33;41.70;40.00
19397;DHT22;9834;48.076;11.878;2023-08-24T15:36:00;41.70;38.30
19397;DHT22;9834;48.076;11.878;2023-08-24T15:38:44;41.70;38.80
19397;DHT22;9834;48.076;11.878;2023-08-24T15:41:14;41.70;39.00
19397;DHT22;9834;48.076;11.878;2023-08-24T15:43:40;41.40;40.60
19397;DHT22;9834;48.076;11.878;2023-08-24T15:46:07;40.80;40.90
19397;DHT22;9834;48.076;11.878;2023-08-24T15:48:39;40.20;41.80
19397;DHT22;9834;48.076;11.878;2023-08-24T15:51:08;39.60;42.50
19397;DHT22;9834;48.076;11.878;2023-08-24T15:53:35;39.70;43.20
19397;DHT22;9834;48.076;11.878;2023-08-24T15:56:06;39.90;43.50
19397;DHT22;9834;48.076;11.878;2023-08-24T15:58:33;40.60;42.60